sensor_id;sensor_type;location;lat;lon;timestamp;P1;durP1;ratioP1;P2;durP2;ratioP2
57605;SDS011;43430;48.204;11.556;2022-10-16T00:00:40;3.08;;;1.40;;
57605;SDS011;43430;48.204;11.556;2022-10-16T00:03:06;4.03;;;1.42;;
57605;SDS011;43430;48.204;11.556;2022-10-16T00:05:33;4.57;;;1.10;;
57605;SDS011;43430;48.204;11.556;2022-10-16T00:08:04;4.03;;;1.38;;
57605;SDS011;43430;48.204;11.556;2022-10-16T00:10:29;3.15;;;1.13;;
57605;SDS011;43430;48.204;11.556;2022-10-16T00:12:55;3.67;;;0.88;;
57605;SDS011;43430;48.204;11.556;2022-10-16T00:15:20;2.75;;;1.10;;
57605;SDS011;43430;48.204;11.556;2022-10-16T00:17:45;6.13;;;1.15;;
57605;SDS011;43430;48.204;11.556;2022-10-16T00:20:11;3.92;;;1.15;;
57605;SDS011;43430;48.204;11.556;2022-10-16T00:22:36;2.97;;;1.23;;
57605;SDS011;43430;48.204;11.556;2022-10-16T00:25:02;3.03;;;1.02;;
57605;SDS011;43430;48.204;11.556;2022-10-16T00:27:27;4.25;;;0.95;;
57605;SDS011;43430;48.204;11.556;2022-10-16T00:29:53;2.15;;;0.65;;
57605;SDS011;43430;48.204;11.556;2022-10-16T00:32:19;2.50;;;0.80;;
57605;SDS011;43430;48.204;11.556;2022-10-16T00:34:45;3.95;;;0.68;;
57605;SDS011;43430;48.204;11.556;2022-10-16T00:37:11;2.55;;;0.95;;
57605;SDS011;43430;48.204;11.556;2022-10-16T00:39:37;3.05;;;1.30;;
57605;SDS011;43430;48.204;11.556;2022-10-16T00:42:02;2.35;;;0.80;;
57605;SDS011;43430;48.204;11.556;2022-10-16T00:44:42;2.40;;;0.77;;
57605;SDS011;43430;48.204;11.556;2022-10-16T00:47:22;5.10;;;1.13;;
57605;SDS011;43430;48.204;11.556;2022-10-16T00:50:08;2.47;;;0.70;;
57605;SDS011;43430;48.204;11.556;2022-10-16T00:52:36;3.05;;;0.77;;
57605;SDS011;43430;48.204;11.556;2022-10-16T00:55:04;1.60;;;0.77;;
57605;SDS011;43430;48.204;11.556;2022-10-16T00:57:31;1.85;;;0.73;;
57605;SDS011;43430;48.204;11.556;2022-10-16T00:59:57;2.28;;;0.70;;
57605;SDS011;43430;48.204;11.556;2022-10-16T01:02:23;2.25;;;0.70;;
57605;SDS011;43430;48.204;11.556;2022-10-16T01:04:50;2.38;;;0.80;;
57605;SDS011;43430;48.204;11.556;2022-10-16T01:13:00;4.53;;;0.82;;
57605;SDS011;43430;48.204;11.556;2022-10-16T01:21:06;3.30;;;0.60;;
57605;SDS011;43430;48.204;11.556;2022-10-16T01:26:10;2.65;;;0.70;;
57605;SDS011;43430;48.204;11.556;2022-10-16T01:31:16;2.72;;;0.90;;
57605;SDS011;43430;48.204;11.556;2022-10-16T01:33:50;2.72;;;0.70;;
57605;SDS011;43430;48.204;11.556;2022-10-16T01:36:21;1.42;;;0.47;;
57605;SDS011;43430;48.204;11.556;2022-10-16T01:38:52;2.60;;;0.75;;
57605;SDS011;43430;48.204;11.556;2022-10-16T01:41:23;4.93;;;0.60;;
57605;SDS011;43430;48.204;11.556;2022-10-16T01:44:37;1.70;;;0.45;;
57605;SDS011;43430;48.204;11.556;2022-10-16T01:46:47;2.83;;;0.50;;
57605;SDS011;43430;48.204;11.556;2022-10-16T01:49:15;2.83;;;0.45;;
57605;SDS011;43430;48.204;11.556;2022-10-16T01:51:43;2.92;;;0.50;;
57605;SDS011;43430;48.204;11.556;2022-10-16T01:54:11;2.75;;;0.55;;
57605;SDS011;43430;48.204;11.556;2022-10-16T01:56:40;2.08;;;0.50;;
57605;SDS011;43430;48.204;11.556;2022-10-16T01:59:08;1.73;;;0.43;;
57605;SDS011;43430;48.204;11.556;2022-10-16T02:01:37;2.33;;;0.55;;
57605;SDS011;43430;48.204;11.556;2022-10-16T02:04:09;2.53;;;0.75;;
57605;SDS011;43430;48.204;11.556;2022-10-16T02:06:42;3.53;;;0.70;;
57605;SDS011;43430;48.204;11.556;2022-10-16T02:09:07;2.28;;;0.55;;
57605;SDS011;43430;48.204;11.556;2022-10-16T02:11:33;3.08;;;0.50;;
57605;SDS011;43430;48.204;11.556;2022-10-16T02:14:00;2.13;;;0.57;;
57605;SDS011;43430;48.204;11.556;2022-10-16T02:16:35;2.47;;;0.70;;
57605;SDS011;43430;48.204;11.556;2022-10-16T02:19:04;3.38;;;1.13;;
57605;SDS011;43430;48.204;11.556;2022-10-16T02:21:44;1.70;;;0.70;;
57605;SDS011;43430;48.204;11.556;2022-10-16T02:27:01;2.55;;;0.50;;
57605;SDS011;43430;48.204;11.556;2022-10-16T02:29:40;3.22;;;0.65;;
57605;SDS011;43430;48.204;11.556;2022-10-16T02:32:13;3.22;;;0.45;;
57605;SDS011;43430;48.204;11.556;2022-10-16T02:34:42;12.60;;;1.02;;
57605;SDS011;43430;48.204;11.556;2022-10-16T02:37:09;1.95;;;0.50;;
57605;SDS011;43430;48.204;11.556;2022-10-16T02:39:36;4.53;;;0.40;;
57605;SDS011;43430;48.204;11.556;2022-10-16T02:42:03;5.25;;;0.70;;
57605;SDS011;43430;48.204;11.556;2022-10-16T02:44:29;3.20;;;0.73;;
57605;SDS011;43430;48.204;11.556;2022-10-16T02:46:54;1.92;;;0.50;;
57605;SDS011;43430;48.204;11.556;2022-10-16T02:49:20;3.60;;;0.60;;
57605;SDS011;43430;48.204;11.556;2022-10-16T02:51:45;3.20;;;0.52;;
57605;SDS011;43430;48.204;11.556;2022-10-16T02:54:11;2.50;;;0.47;;
57605;SDS011;43430;48.204;11.556;2022-10-16T02:56:36;1.92;;;0.50;;
57605;SDS011;43430;48.204;11.556;2022-10-16T02:59:01;3.53;;;0.68;;
57605;SDS011;43430;48.204;11.556;2022-10-16T03:01:27;2.90;;;0.68;;
57605;SDS011;43430;48.204;11.556;2022-10-16T03:03:52;1.52;;;0.55;;
57605;SDS011;43430;48.204;11.556;2022-10-16T03:06:18;4.80;;;0.73;;
57605;SDS011;43430;48.204;11.556;2022-10-16T03:08:43;3.28;;;0.95;;
57605;SDS011;43430;48.204;11.556;2022-10-16T03:11:08;2.72;;;0.82;;
57605;SDS011;43430;48.204;11.556;2022-10-16T03:13:34;3.47;;;0.88;;
57605;SDS011;43430;48.204;11.556;2022-10-16T03:15:59;2.63;;;0.70;;
57605;SDS011;43430;48.204;11.556;2022-10-16T03:18:24;1.60;;;0.50;;
57605;SDS011;43430;48.204;11.556;2022-10-16T03:20:50;1.77;;;0.68;;
57605;SDS011;43430;48.204;11.556;2022-10-16T03:23:15;1.75;;;0.50;;
57605;SDS011;43430;48.204;11.556;2022-10-16T03:25:40;4.57;;;0.80;;
57605;SDS011;43430;48.204;11.556;2022-10-16T03:28:06;2.33;;;0.73;;
57605;SDS011;43430;48.204;11.556;2022-10-16T03:30:31;3.60;;;1.23;;
57605;SDS011;43430;48.204;11.556;2022-10-16T03:32:57;3.53;;;0.70;;
57605;SDS011;43430;48.204;11.556;2022-10-16T03:35:23;6.00;;;0.90;;
57605;SDS011;43430;48.204;11.556;2022-10-16T03:37:48;2.10;;;0.80;;
57605;SDS011;43430;48.204;11.556;2022-10-16T03:40:14;2.70;;;0.85;;
57605;SDS011;43430;48.204;11.556;2022-10-16T03:42:41;2.63;;;1.00;;
57605;SDS011;43430;48.204;11.556;2022-10-16T03:45:07;3.83;;;0.60;;
57605;SDS011;43430;48.204;11.556;2022-10-16T03:47:33;2.30;;;0.80;;
57605;SDS011;43430;48.204;11.556;2022-10-16T03:49:59;2.63;;;0.80;;
57605;SDS011;43430;48.204;11.556;2022-10-16T03:52:24;2.15;;;0.57;;
57605;SDS011;43430;48.204;11.556;2022-10-16T03:54:50;2.72;;;1.00;;
57605;SDS011;43430;48.204;11.556;2022-10-16T03:57:15;1.70;;;0.70;;
57605;SDS011;43430;48.204;11.556;2022-10-16T03:59:41;4.45;;;0.50;;
57605;SDS011;43430;48.204;11.556;2022-10-16T04:02:06;2.85;;;0.80;;
57605;SDS011;43430;48.204;11.556;2022-10-16T04:04:31;3.80;;;0.55;;
57605;SDS011;43430;48.204;11.556;2022-10-16T04:06:57;3.08;;;0.70;;
57605;SDS011;43430;48.204;11.556;2022-10-16T04:09:22;3.08;;;0.88;;
57605;SDS011;43430;48.204;11.556;2022-10-16T04:11:47;2.28;;;0.60;;
57605;SDS011;43430;48.204;11.556;2022-10-16T04:14:13;2.00;;;0.70;;
57605;SDS011;43430;48.204;11.556;2022-10-16T04:16:38;2.22;;;0.77;;
57605;SDS011;43430;48.204;11.556;2022-10-16T04:19:03;2.85;;;0.52;;
57605;SDS011;43430;48.204;11.556;2022-10-16T04:21:29;2.60;;;0.95;;
57605;SDS011;43430;48.204;11.556;2022-10-16T04:23:54;2.33;;;0.60;;
57605;SDS011;43430;48.204;11.556;2022-10-16T04:26:20;3.22;;;0.60;;
57605;SDS011;43430;48.204;11.556;2022-10-16T04:28:45;2.13;;;0.60;;
57605;SDS011;43430;48.204;11.556;2022-10-16T04:31:10;2.90;;;0.60;;
57605;SDS011;43430;48.204;11.556;2022-10-16T04:33:36;1.77;;;0.50;;
57605;SDS011;43430;48.204;11.556;2022-10-16T04:36:02;1.75;;;0.60;;
57605;SDS011;43430;48.204;11.556;2022-10-16T04:38:28;3.10;;;0.75;;
57605;SDS011;43430;48.204;11.556;2022-10-16T04:40:54;2.22;;;0.73;;
57605;SDS011;43430;48.204;11.556;2022-10-16T04:43:20;3.05;;;0.70;;
57605;SDS011;43430;48.204;11.556;2022-10-16T04:45:45;1.67;;;0.45;;
57605;SDS011;43430;48.204;11.556;2022-10-16T04:48:11;2.53;;;0.50;;
57605;SDS011;43430;48.204;11.556;2022-10-16T04:50:36;1.73;;;0.38;;
57605;SDS011;43430;48.204;11.556;2022-10-16T04:53:01;2.95;;;0.57;;
57605;SDS011;43430;48.204;11.556;2022-10-16T04:55:27;2.15;;;0.40;;
57605;SDS011;43430;48.204;11.556;2022-10-16T04:57:52;4.40;;;0.68;;
57605;SDS011;43430;48.204;11.556;2022-10-16T05:00:18;2.22;;;0.63;;
57605;SDS011;43430;48.204;11.556;2022-10-16T05:02:43;3.13;;;0.70;;
57605;SDS011;43430;48.204;11.556;2022-10-16T05:05:08;2.17;;;0.70;;
57605;SDS011;43430;48.204;11.556;2022-10-16T05:07:34;2.42;;;0.47;;
57605;SDS011;43430;48.204;11.556;2022-10-16T05:09:59;3.75;;;0.55;;
57605;SDS011;43430;48.204;11.556;2022-10-16T05:12:24;4.20;;;0.80;;
57605;SDS011;43430;48.204;11.556;2022-10-16T05:14:50;1.85;;;0.55;;
57605;SDS011;43430;48.204;11.556;2022-10-16T05:17:15;2.38;;;0.50;;
57605;SDS011;43430;48.204;11.556;2022-10-16T05:19:40;2.95;;;0.40;;
57605;SDS011;43430;48.204;11.556;2022-10-16T05:22:06;3.00;;;0.52;;
57605;SDS011;43430;48.204;11.556;2022-10-16T05:24:31;2.75;;;0.47;;
57605;SDS011;43430;48.204;11.556;2022-10-16T05:26:56;4.00;;;0.50;;
57605;SDS011;43430;48.204;11.556;2022-10-16T05:29:22;1.77;;;0.40;;
57605;SDS011;43430;48.204;11.556;2022-10-16T05:31:49;1.70;;;0.50;;
57605;SDS011;43430;48.204;11.556;2022-10-16T05:34:16;1.90;;;0.60;;
57605;SDS011;43430;48.204;11.556;2022-10-16T05:36:41;2.33;;;0.47;;
57605;SDS011;43430;48.204;11.556;2022-10-16T05:39:07;1.50;;;0.38;;
57605;SDS011;43430;48.204;11.556;2022-10-16T05:41:33;2.15;;;0.70;;
57605;SDS011;43430;48.204;11.556;2022-10-16T05:43:58;2.28;;;0.60;;
57605;SDS011;43430;48.204;11.556;2022-10-16T05:46:23;1.92;;;0.50;;
57605;SDS011;43430;48.204;11.556;2022-10-16T05:48:51;3.47;;;0.70;;
57605;SDS011;43430;48.204;11.556;2022-10-16T05:51:18;5.57;;;1.13;;
57605;SDS011;43430;48.204;11.556;2022-10-16T05:53:43;2.05;;;0.65;;
57605;SDS011;43430;48.204;11.556;2022-10-16T05:56:09;2.78;;;0.63;;
57605;SDS011;43430;48.204;11.556;2022-10-16T05:58:37;2.88;;;0.57;;
57605;SDS011;43430;48.204;11.556;2022-10-16T06:01:15;4.00;;;0.80;;
57605;SDS011;43430;48.204;11.556;2022-10-16T06:03:42;2.80;;;0.82;;
57605;SDS011;43430;48.204;11.556;2022-10-16T06:06:08;2.72;;;0.63;;
57605;SDS011;43430;48.204;11.556;2022-10-16T06:08:37;3.90;;;0.60;;
57605;SDS011;43430;48.204;11.556;2022-10-16T06:11:03;1.60;;;0.50;;
57605;SDS011;43430;48.204;11.556;2022-10-16T06:13:30;3.60;;;1.08;;
57605;SDS011;43430;48.204;11.556;2022-10-16T06:16:00;2.60;;;0.75;;
57605;SDS011;43430;48.204;11.556;2022-10-16T06:18:26;2.20;;;0.38;;
57605;SDS011;43430;48.204;11.556;2022-10-16T06:20:52;2.05;;;0.63;;
57605;SDS011;43430;48.204;11.556;2022-10-16T06:23:18;2.67;;;0.82;;
57605;SDS011;43430;48.204;11.556;2022-10-16T06:25:44;3.78;;;0.57;;
57605;SDS011;43430;48.204;11.556;2022-10-16T06:28:09;5.60;;;0.70;;
57605;SDS011;43430;48.204;11.556;2022-10-16T06:30:34;4.35;;;0.70;;
57605;SDS011;43430;48.204;11.556;2022-10-16T06:33:00;2.22;;;0.70;;
57605;SDS011;43430;48.204;11.556;2022-10-16T06:35:25;2.92;;;0.88;;
57605;SDS011;43430;48.204;11.556;2022-10-16T06:37:52;5.05;;;0.68;;
57605;SDS011;43430;48.204;11.556;2022-10-16T06:40:18;2.63;;;0.80;;
57605;SDS011;43430;48.204;11.556;2022-10-16T06:42:43;2.58;;;0.80;;
57605;SDS011;43430;48.204;11.556;2022-10-16T06:45:09;2.30;;;0.70;;
57605;SDS011;43430;48.204;11.556;2022-10-16T06:47:35;1.80;;;0.68;;
57605;SDS011;43430;48.204;11.556;2022-10-16T06:50:00;4.40;;;0.93;;
57605;SDS011;43430;48.204;11.556;2022-10-16T06:52:27;2.90;;;0.88;;
57605;SDS011;43430;48.204;11.556;2022-10-16T06:54:53;2.40;;;0.90;;
57605;SDS011;43430;48.204;11.556;2022-10-16T06:57:18;3.33;;;0.98;;
57605;SDS011;43430;48.204;11.556;2022-10-16T06:59:43;4.47;;;1.08;;
57605;SDS011;43430;48.204;11.556;2022-10-16T07:02:09;3.63;;;0.80;;
57605;SDS011;43430;48.204;11.556;2022-10-16T07:04:35;3.58;;;1.05;;
57605;SDS011;43430;48.204;11.556;2022-10-16T07:07:01;3.50;;;1.00;;
57605;SDS011;43430;48.204;11.556;2022-10-16T07:09:26;4.05;;;1.30;;
57605;SDS011;43430;48.204;11.556;2022-10-16T07:11:52;3.17;;;1.23;;
57605;SDS011;43430;48.204;11.556;2022-10-16T07:14:18;8.98;;;1.98;;
57605;SDS011;43430;48.204;11.556;2022-10-16T07:16:44;4.35;;;1.50;;
57605;SDS011;43430;48.204;11.556;2022-10-16T07:19:10;5.70;;;2.15;;
57605;SDS011;43430;48.204;11.556;2022-10-16T07:21:38;3.70;;;1.98;;
57605;SDS011;43430;48.204;11.556;2022-10-16T07:24:04;2.50;;;0.88;;
57605;SDS011;43430;48.204;11.556;2022-10-16T07:26:32;4.20;;;1.67;;
57605;SDS011;43430;48.204;11.556;2022-10-16T07:29:00;5.63;;;1.65;;
57605;SDS011;43430;48.204;11.556;2022-10-16T07:31:25;12.90;;;2.08;;
57605;SDS011;43430;48.204;11.556;2022-10-16T07:33:51;5.07;;;1.52;;
57605;SDS011;43430;48.204;11.556;2022-10-16T07:36:17;7.90;;;4.47;;
57605;SDS011;43430;48.204;11.556;2022-10-16T07:38:44;8.30;;;4.25;;
57605;SDS011;43430;48.204;11.556;2022-10-16T07:41:11;6.93;;;4.20;;
57605;SDS011;43430;48.204;11.556;2022-10-16T07:43:39;7.15;;;4.65;;
57605;SDS011;43430;48.204;11.556;2022-10-16T07:46:05;12.40;;;3.85;;
57605;SDS011;43430;48.204;11.556;2022-10-16T07:48:31;8.70;;;4.45;;
57605;SDS011;43430;48.204;11.556;2022-10-16T07:50:59;7.50;;;3.78;;
57605;SDS011;43430;48.204;11.556;2022-10-16T07:53:25;6.68;;;3.55;;
57605;SDS011;43430;48.204;11.556;2022-10-16T07:55:50;5.53;;;3.33;;
57605;SDS011;43430;48.204;11.556;2022-10-16T07:58:15;7.50;;;2.58;;
57605;SDS011;43430;48.204;11.556;2022-10-16T08:00:41;6.93;;;2.40;;
57605;SDS011;43430;48.204;11.556;2022-10-16T08:03:07;5.13;;;1.70;;
57605;SDS011;43430;48.204;11.556;2022-10-16T08:05:33;6.00;;;1.45;;
57605;SDS011;43430;48.204;11.556;2022-10-16T08:07:59;2.67;;;1.15;;
57605;SDS011;43430;48.204;11.556;2022-10-16T08:10:25;2.95;;;0.93;;
57605;SDS011;43430;48.204;11.556;2022-10-16T08:12:52;2.78;;;0.88;;
57605;SDS011;43430;48.204;11.556;2022-10-16T08:15:18;1.83;;;0.80;;
57605;SDS011;43430;48.204;11.556;2022-10-16T08:17:44;2.88;;;1.02;;
57605;SDS011;43430;48.204;11.556;2022-10-16T08:20:10;6.72;;;1.00;;
57605;SDS011;43430;48.204;11.556;2022-10-16T08:22:35;3.03;;;1.10;;
57605;SDS011;43430;48.204;11.556;2022-10-16T08:25:01;1.73;;;0.73;;
57605;SDS011;43430;48.204;11.556;2022-10-16T08:27:30;5.10;;;1.10;;
57605;SDS011;43430;48.204;11.556;2022-10-16T08:29:56;3.05;;;0.90;;
57605;SDS011;43430;48.204;11.556;2022-10-16T08:32:22;4.25;;;0.90;;
57605;SDS011;43430;48.204;11.556;2022-10-16T08:34:47;3.97;;;0.90;;
57605;SDS011;43430;48.204;11.556;2022-10-16T08:37:13;2.38;;;0.93;;
57605;SDS011;43430;48.204;11.556;2022-10-16T08:39:38;3.05;;;0.85;;
57605;SDS011;43430;48.204;11.556;2022-10-16T08:42:11;3.25;;;1.10;;
57605;SDS011;43430;48.204;11.556;2022-10-16T08:45:10;2.58;;;0.95;;
57605;SDS011;43430;48.204;11.556;2022-10-16T08:48:18;3.17;;;0.77;;
57605;SDS011;43430;48.204;11.556;2022-10-16T08:50:49;4.80;;;1.10;;
57605;SDS011;43430;48.204;11.556;2022-10-16T08:53:22;3.20;;;0.90;;
57605;SDS011;43430;48.204;11.556;2022-10-16T08:55:53;2.45;;;0.80;;
57605;SDS011;43430;48.204;11.556;2022-10-16T08:58:19;5.85;;;1.10;;
57605;SDS011;43430;48.204;11.556;2022-10-16T09:01:01;2.03;;;0.70;;
57605;SDS011;43430;48.204;11.556;2022-10-16T09:17:49;2.85;;;1.00;;
57605;SDS011;43430;48.204;11.556;2022-10-16T09:23:29;2.33;;;0.90;;
57605;SDS011;43430;48.204;11.556;2022-10-16T09:25:59;3.13;;;0.90;;
57605;SDS011;43430;48.204;11.556;2022-10-16T09:28:25;1.48;;;0.60;;
57605;SDS011;43430;48.204;11.556;2022-10-16T09:30:50;2.95;;;0.70;;
57605;SDS011;43430;48.204;11.556;2022-10-16T09:33:17;2.00;;;0.70;;
57605;SDS011;43430;48.204;11.556;2022-10-16T09:35:49;2.50;;;1.08;;
57605;SDS011;43430;48.204;11.556;2022-10-16T09:38:25;1.80;;;0.70;;
57605;SDS011;43430;48.204;11.556;2022-10-16T09:40:58;3.03;;;1.00;;
57605;SDS011;43430;48.204;11.556;2022-10-16T09:48:28;1.98;;;0.82;;
57605;SDS011;43430;48.204;11.556;2022-10-16T09:51:00;3.10;;;0.93;;
57605;SDS011;43430;48.204;11.556;2022-10-16T09:53:37;2.65;;;1.05;;
57605;SDS011;43430;48.204;11.556;2022-10-16T09:56:04;1.75;;;0.82;;
57605;SDS011;43430;48.204;11.556;2022-10-16T09:58:31;3.30;;;1.00;;
57605;SDS011;43430;48.204;11.556;2022-10-16T10:00:58;2.90;;;0.93;;
57605;SDS011;43430;48.204;11.556;2022-10-16T10:03:33;2.53;;;0.80;;
57605;SDS011;43430;48.204;11.556;2022-10-16T10:09:04;1.80;;;0.90;;
57605;SDS011;43430;48.204;11.556;2022-10-16T10:14:25;2.47;;;1.17;;
57605;SDS011;43430;48.204;11.556;2022-10-16T10:16:52;2.42;;;1.25;;
57605;SDS011;43430;48.204;11.556;2022-10-16T10:19:27;2.63;;;1.20;;
57605;SDS011;43430;48.204;11.556;2022-10-16T10:21:52;1.98;;;0.98;;
57605;SDS011;43430;48.204;11.556;2022-10-16T10:24:18;2.92;;;1.10;;
57605;SDS011;43430;48.204;11.556;2022-10-16T10:26:53;2.58;;;1.30;;
57605;SDS011;43430;48.204;11.556;2022-10-16T10:29:45;2.85;;;1.02;;
57605;SDS011;43430;48.204;11.556;2022-10-16T10:35:00;1.60;;;1.00;;
57605;SDS011;43430;48.204;11.556;2022-10-16T10:43:16;3.05;;;0.90;;
57605;SDS011;43430;48.204;11.556;2022-10-16T10:45:46;1.65;;;0.90;;
57605;SDS011;43430;48.204;11.556;2022-10-16T10:51:00;1.00;;;0.60;;
57605;SDS011;43430;48.204;11.556;2022-10-16T10:53:47;1.88;;;0.75;;
57605;SDS011;43430;48.204;11.556;2022-10-16T11:05:01;1.92;;;0.80;;
57605;SDS011;43430;48.204;11.556;2022-10-16T11:07:54;4.07;;;0.80;;
57605;SDS011;43430;48.204;11.556;2022-10-16T11:10:25;1.73;;;0.77;;
57605;SDS011;43430;48.204;11.556;2022-10-16T11:13:00;1.65;;;0.77;;
57605;SDS011;43430;48.204;11.556;2022-10-16T11:15:39;0.93;;;0.60;;
57605;SDS011;43430;48.204;11.556;2022-10-16T11:21:08;2.03;;;0.80;;
57605;SDS011;43430;48.204;11.556;2022-10-16T11:23:47;1.13;;;0.60;;
57605;SDS011;43430;48.204;11.556;2022-10-16T11:26:20;1.20;;;0.68;;
57605;SDS011;43430;48.204;11.556;2022-10-16T11:28:49;2.15;;;0.90;;
57605;SDS011;43430;48.204;11.556;2022-10-16T11:34:17;2.78;;;0.60;;
57605;SDS011;43430;48.204;11.556;2022-10-16T11:36:58;0.93;;;0.40;;
57605;SDS011;43430;48.204;11.556;2022-10-16T11:39:32;2.05;;;0.60;;
57605;SDS011;43430;48.204;11.556;2022-10-16T11:42:09;1.08;;;0.43;;
57605;SDS011;43430;48.204;11.556;2022-10-16T11:47:09;1.17;;;0.52;;
57605;SDS011;43430;48.204;11.556;2022-10-16T11:50:01;1.30;;;0.80;;
57605;SDS011;43430;48.204;11.556;2022-10-16T11:52:42;3.67;;;0.60;;
57605;SDS011;43430;48.204;11.556;2022-10-16T11:55:20;0.93;;;0.57;;
57605;SDS011;43430;48.204;11.556;2022-10-16T11:57:52;1.35;;;0.52;;
57605;SDS011;43430;48.204;11.556;2022-10-16T12:00:24;1.70;;;0.70;;
57605;SDS011;43430;48.204;11.556;2022-10-16T12:05:33;2.20;;;0.70;;
57605;SDS011;43430;48.204;11.556;2022-10-16T12:10:35;1.40;;;0.63;;
57605;SDS011;43430;48.204;11.556;2022-10-16T12:13:02;3.25;;;0.80;;
57605;SDS011;43430;48.204;11.556;2022-10-16T12:15:30;4.40;;;0.60;;
57605;SDS011;43430;48.204;11.556;2022-10-16T12:17:57;1.23;;;0.70;;
57605;SDS011;43430;48.204;11.556;2022-10-16T12:20:24;2.53;;;0.70;;
57605;SDS011;43430;48.204;11.556;2022-10-16T12:22:56;3.30;;;0.70;;
57605;SDS011;43430;48.204;11.556;2022-10-16T12:25:23;1.20;;;0.73;;
57605;SDS011;43430;48.204;11.556;2022-10-16T12:28:03;1.35;;;0.65;;
57605;SDS011;43430;48.204;11.556;2022-10-16T12:30:31;2.42;;;0.90;;
57605;SDS011;43430;48.204;11.556;2022-10-16T12:33:03;1.38;;;0.70;;
57605;SDS011;43430;48.204;11.556;2022-10-16T12:35:33;2.60;;;0.90;;
57605;SDS011;43430;48.204;11.556;2022-10-16T12:38:04;3.15;;;1.33;;
57605;SDS011;43430;48.204;11.556;2022-10-16T12:40:32;1.50;;;0.90;;
57605;SDS011;43430;48.204;11.556;2022-10-16T12:43:11;2.42;;;1.38;;
57605;SDS011;43430;48.204;11.556;2022-10-16T12:48:30;1.40;;;0.77;;
57605;SDS011;43430;48.204;11.556;2022-10-16T12:50:56;1.77;;;1.10;;
57605;SDS011;43430;48.204;11.556;2022-10-16T12:53:23;3.08;;;0.98;;
57605;SDS011;43430;48.204;11.556;2022-10-16T13:04:18;1.98;;;0.60;;
57605;SDS011;43430;48.204;11.556;2022-10-16T13:12:40;3.72;;;0.85;;
57605;SDS011;43430;48.204;11.556;2022-10-16T13:15:22;1.20;;;0.77;;
57605;SDS011;43430;48.204;11.556;2022-10-16T13:23:15;0.82;;;0.60;;
57605;SDS011;43430;48.204;11.556;2022-10-16T13:28:46;1.02;;;0.50;;
57605;SDS011;43430;48.204;11.556;2022-10-16T13:31:21;2.53;;;0.50;;
57605;SDS011;43430;48.204;11.556;2022-10-16T13:33:52;0.80;;;0.40;;
57605;SDS011;43430;48.204;11.556;2022-10-16T13:38:48;0.70;;;0.40;;
57605;SDS011;43430;48.204;11.556;2022-10-16T13:41:17;1.80;;;0.80;;
57605;SDS011;43430;48.204;11.556;2022-10-16T13:43:49;0.98;;;0.70;;
57605;SDS011;43430;48.204;11.556;2022-10-16T13:46:20;1.15;;;0.70;;
57605;SDS011;43430;48.204;11.556;2022-10-16T13:48:57;0.80;;;0.65;;
57605;SDS011;43430;48.204;11.556;2022-10-16T13:51:25;1.73;;;0.70;;
57605;SDS011;43430;48.204;11.556;2022-10-16T13:53:50;1.25;;;0.68;;
57605;SDS011;43430;48.204;11.556;2022-10-16T13:56:17;1.27;;;0.68;;
57605;SDS011;43430;48.204;11.556;2022-10-16T13:58:45;2.45;;;0.60;;
57605;SDS011;43430;48.204;11.556;2022-10-16T14:01:16;1.10;;;0.85;;
57605;SDS011;43430;48.204;11.556;2022-10-16T14:03:48;2.90;;;0.65;;
57605;SDS011;43430;48.204;11.556;2022-10-16T14:06:16;1.25;;;0.88;;
57605;SDS011;43430;48.204;11.556;2022-10-16T14:08:48;0.82;;;0.57;;
57605;SDS011;43430;48.204;11.556;2022-10-16T14:11:23;1.02;;;0.60;;
57605;SDS011;43430;48.204;11.556;2022-10-16T14:13:50;1.27;;;0.73;;
57605;SDS011;43430;48.204;11.556;2022-10-16T14:16:17;1.73;;;0.70;;
57605;SDS011;43430;48.204;11.556;2022-10-16T14:18:46;6.13;;;0.75;;
57605;SDS011;43430;48.204;11.556;2022-10-16T14:21:19;0.98;;;0.63;;
57605;SDS011;43430;48.204;11.556;2022-10-16T14:23:44;1.25;;;0.50;;
57605;SDS011;43430;48.204;11.556;2022-10-16T14:28:35;1.30;;;0.67;;
57605;SDS011;43430;48.204;11.556;2022-10-16T14:31:13;1.00;;;0.63;;
57605;SDS011;43430;48.204;11.556;2022-10-16T14:33:48;2.47;;;0.60;;
57605;SDS011;43430;48.204;11.556;2022-10-16T14:36:14;1.48;;;0.65;;
57605;SDS011;43430;48.204;11.556;2022-10-16T14:38:48;2.25;;;0.93;;
57605;SDS011;43430;48.204;11.556;2022-10-16T14:41:19;1.27;;;0.80;;
57605;SDS011;43430;48.204;11.556;2022-10-16T14:43:49;1.15;;;0.88;;
57605;SDS011;43430;48.204;11.556;2022-10-16T14:46:17;1.15;;;0.70;;
57605;SDS011;43430;48.204;11.556;2022-10-16T14:48:48;3.28;;;0.60;;
57605;SDS011;43430;48.204;11.556;2022-10-16T14:51:19;1.48;;;0.60;;
57605;SDS011;43430;48.204;11.556;2022-10-16T14:53:45;2.10;;;0.60;;
57605;SDS011;43430;48.204;11.556;2022-10-16T14:56:16;2.20;;;0.65;;
57605;SDS011;43430;48.204;11.556;2022-10-16T14:58:44;1.70;;;0.77;;
57605;SDS011;43430;48.204;11.556;2022-10-16T15:01:10;2.83;;;0.85;;
57605;SDS011;43430;48.204;11.556;2022-10-16T15:03:36;1.55;;;0.80;;
57605;SDS011;43430;48.204;11.556;2022-10-16T15:06:02;1.33;;;0.70;;
57605;SDS011;43430;48.204;11.556;2022-10-16T15:08:27;2.60;;;0.73;;
57605;SDS011;43430;48.204;11.556;2022-10-16T15:10:52;1.50;;;0.85;;
57605;SDS011;43430;48.204;11.556;2022-10-16T15:13:18;1.45;;;0.88;;
57605;SDS011;43430;48.204;11.556;2022-10-16T15:15:44;1.83;;;0.85;;
57605;SDS011;43430;48.204;11.556;2022-10-16T15:18:14;1.83;;;0.90;;
57605;SDS011;43430;48.204;11.556;2022-10-16T15:20:45;2.53;;;0.80;;
57605;SDS011;43430;48.204;11.556;2022-10-16T15:23:16;1.58;;;0.90;;
57605;SDS011;43430;48.204;11.556;2022-10-16T15:25:44;1.85;;;0.93;;
57605;SDS011;43430;48.204;11.556;2022-10-16T15:28:11;1.63;;;0.93;;
57605;SDS011;43430;48.204;11.556;2022-10-16T15:30:38;1.38;;;0.82;;
57605;SDS011;43430;48.204;11.556;2022-10-16T15:33:04;1.75;;;0.75;;
57605;SDS011;43430;48.204;11.556;2022-10-16T15:35:34;2.25;;;0.90;;
57605;SDS011;43430;48.204;11.556;2022-10-16T15:37:59;2.05;;;1.20;;
57605;SDS011;43430;48.204;11.556;2022-10-16T15:40:25;1.63;;;0.80;;
57605;SDS011;43430;48.204;11.556;2022-10-16T15:42:50;1.90;;;0.95;;
57605;SDS011;43430;48.204;11.556;2022-10-16T15:45:15;1.83;;;1.00;;
57605;SDS011;43430;48.204;11.556;2022-10-16T15:47:42;3.67;;;0.77;;
57605;SDS011;43430;48.204;11.556;2022-10-16T15:50:09;2.17;;;0.70;;
57605;SDS011;43430;48.204;11.556;2022-10-16T15:52:36;2.00;;;0.82;;
57605;SDS011;43430;48.204;11.556;2022-10-16T15:55:04;2.53;;;0.65;;
57605;SDS011;43430;48.204;11.556;2022-10-16T15:57:30;2.50;;;0.77;;
57605;SDS011;43430;48.204;11.556;2022-10-16T15:59:55;1.45;;;0.80;;
57605;SDS011;43430;48.204;11.556;2022-10-16T16:02:21;1.27;;;0.60;;
57605;SDS011;43430;48.204;11.556;2022-10-16T16:04:46;2.17;;;0.80;;
57605;SDS011;43430;48.204;11.556;2022-10-16T16:07:12;2.03;;;0.82;;
57605;SDS011;43430;48.204;11.556;2022-10-16T16:09:37;1.63;;;0.90;;
57605;SDS011;43430;48.204;11.556;2022-10-16T16:12:03;3.17;;;0.95;;
57605;SDS011;43430;48.204;11.556;2022-10-16T16:14:28;5.07;;;1.00;;
57605;SDS011;43430;48.204;11.556;2022-10-16T16:16:54;1.80;;;0.80;;
57605;SDS011;43430;48.204;11.556;2022-10-16T16:19:20;2.05;;;0.82;;
57605;SDS011;43430;48.204;11.556;2022-10-16T16:21:46;2.65;;;1.02;;
57605;SDS011;43430;48.204;11.556;2022-10-16T16:24:12;3.90;;;1.90;;
57605;SDS011;43430;48.204;11.556;2022-10-16T16:26:37;4.05;;;2.08;;
57605;SDS011;43430;48.204;11.556;2022-10-16T16:29:05;3.25;;;1.63;;
57605;SDS011;43430;48.204;11.556;2022-10-16T16:31:31;3.72;;;1.40;;